Guairaca, Brazil
Current Conditions -  °F | °C
As of 4:00 PM on Sunday 25 Jan 2015 (Local Time) from SBMG Reporting Station
Scattered Clouds Scattered Clouds  
Wind Chill: 90°   Ceiling: Unl
Heat Index: 95°   Visibility: 6mi
Dew Point: 70°   Wind: 8mph
Humidity: 52%   Direction: 330°NNW
Pressure: 29.85"   Gusts: NA
Location:  22.93°S, 52.69°W
Report Text: SBMG 251800Z 33007KT 9999 SCT035 FEW040TCU 32/21 Q1011
Loading
Personal Weather Stations






























Interactive Weather Map New forecast layout! Learn more

10-Day Weather Forecast

Advertisements
Track Severe Weather on mobile